createdAt,value
2022-08-26T00:01:29.672Z,7.00
2022-08-26T00:03:56.970Z,7.30
2022-08-26T00:06:25.404Z,7.28
2022-08-26T00:08:52.198Z,7.13
2022-08-26T00:11:26.888Z,6.55
2022-08-26T00:13:57.342Z,7.03
2022-08-26T00:16:26.540Z,7.18
2022-08-26T00:18:54.382Z,6.68
2022-08-26T00:21:21.564Z,6.57
2022-08-26T00:23:48.326Z,7.68
2022-08-26T00:26:15.470Z,7.35
2022-08-26T00:28:42.381Z,6.95
2022-08-26T00:31:09.482Z,7.40
2022-08-26T00:33:39.287Z,7.60
2022-08-26T00:36:07.345Z,7.70
2022-08-26T00:38:37.859Z,8.18
2022-08-26T00:41:05.760Z,7.10
2022-08-26T00:43:46.176Z,7.30
2022-08-26T00:46:23.689Z,6.65
2022-08-26T00:48:53.883Z,6.90
2022-08-26T00:51:24.804Z,6.70
2022-08-26T00:54:05.672Z,6.00
2022-08-26T00:56:47.024Z,6.45
2022-08-26T00:59:17.952Z,6.38
2022-08-26T01:01:45.908Z,6.32
2022-08-26T01:04:17.787Z,6.25
2022-08-26T01:06:46.721Z,6.72
2022-08-26T01:09:14.181Z,6.47
2022-08-26T01:11:41.831Z,7.43
2022-08-26T01:14:09.536Z,6.70
2022-08-26T01:16:37.129Z,6.68
2022-08-26T01:19:16.259Z,6.72
2022-08-26T01:21:57.776Z,7.43
2022-08-26T01:24:28.353Z,7.10
2022-08-26T01:27:01.767Z,7.03
2022-08-26T01:29:30.054Z,8.00
2022-08-26T01:31:57.916Z,7.05
2022-08-26T01:34:28.075Z,6.82
2022-08-26T01:37:01.924Z,7.93
2022-08-26T01:39:29.237Z,7.28
2022-08-26T01:41:58.004Z,7.07
2022-08-26T01:44:36.297Z,7.10
2022-08-26T01:47:05.000Z,7.75
2022-08-26T01:49:35.771Z,7.07
2022-08-26T01:52:04.537Z,7.43
2022-08-26T01:54:32.465Z,7.28
2022-08-26T01:56:59.726Z,7.35
2022-08-26T01:59:26.759Z,7.43
2022-08-26T02:01:53.698Z,6.85
2022-08-26T02:04:34.434Z,6.65
2022-08-26T02:07:09.218Z,7.13
2022-08-26T02:09:41.401Z,6.85
2022-08-26T02:12:12.417Z,6.80
2022-08-26T02:17:11.577Z,6.90
2022-08-26T02:19:42.006Z,6.93
2022-08-26T02:22:14.370Z,7.13
2022-08-26T02:24:53.600Z,6.75
2022-08-26T02:27:32.117Z,6.93
2022-08-26T02:30:10.250Z,6.90
2022-08-26T02:32:38.162Z,7.30
2022-08-26T02:35:08.380Z,7.60
2022-08-26T02:37:36.192Z,7.10
2022-08-26T02:40:05.168Z,7.78
2022-08-26T02:42:32.340Z,7.30
2022-08-26T02:44:59.498Z,7.60
2022-08-26T02:47:28.989Z,7.53
2022-08-26T02:49:55.925Z,6.82
2022-08-26T02:52:22.867Z,6.82
2022-08-26T02:54:49.735Z,7.03
2022-08-26T02:57:17.370Z,7.80
2022-08-26T02:59:44.230Z,7.47
2022-08-26T03:02:11.363Z,7.47
2022-08-26T03:04:39.507Z,6.72
2022-08-26T03:07:07.203Z,6.50
2022-08-26T03:09:35.021Z,6.80
2022-08-26T03:12:02.147Z,6.97
2022-08-26T03:14:29.829Z,7.07
2022-08-26T03:16:56.787Z,7.32
2022-08-26T03:19:25.143Z,7.20
2022-08-26T03:21:52.987Z,7.10
2022-08-26T03:24:26.292Z,6.18
2022-08-26T03:26:53.261Z,6.55
2022-08-26T03:29:39.863Z,7.45
2022-08-26T03:32:06.895Z,6.85
2022-08-26T03:34:34.314Z,7.93
2022-08-26T03:37:01.517Z,7.15
2022-08-26T03:39:28.815Z,7.53
2022-08-26T03:41:58.965Z,7.18
2022-08-26T03:44:26.522Z,7.68
2022-08-26T03:46:54.631Z,7.30
2022-08-26T03:49:22.115Z,7.30
2022-08-26T03:51:48.941Z,7.32
2022-08-26T03:54:16.924Z,8.18
2022-08-26T03:56:43.753Z,8.10
2022-08-26T04:01:40.250Z,7.68
2022-08-26T04:04:07.034Z,8.35
2022-08-26T04:06:37.225Z,8.75
2022-08-26T04:09:09.763Z,8.82
2022-08-26T04:11:39.448Z,8.75
2022-08-26T04:14:17.635Z,8.70
2022-08-26T04:16:47.386Z,8.80
2022-08-26T04:19:15.532Z,7.82
2022-08-26T04:21:43.520Z,8.02
2022-08-26T04:24:13.207Z,8.63
2022-08-26T04:29:18.241Z,8.80
2022-08-26T04:31:45.647Z,8.30
2022-08-26T04:34:14.108Z,8.75
2022-08-26T04:36:42.005Z,7.57
2022-08-26T04:39:12.152Z,8.52
2022-08-26T04:41:39.671Z,8.85
2022-08-26T04:44:07.799Z,8.75
2022-08-26T04:46:35.461Z,8.80
2022-08-26T04:49:08.843Z,8.50
2022-08-26T04:51:36.556Z,8.55
2022-08-26T04:54:04.425Z,9.10
2022-08-26T04:56:34.153Z,8.80
2022-08-26T04:59:03.100Z,8.38
2022-08-26T05:01:31.639Z,7.75
2022-08-26T05:03:59.021Z,8.38
2022-08-26T05:06:26.271Z,8.15
2022-08-26T05:08:54.200Z,7.95
2022-08-26T05:11:22.058Z,8.43
2022-08-26T05:13:49.249Z,8.27
2022-08-26T05:16:16.985Z,6.43
2022-08-26T05:18:45.754Z,7.43
2022-08-26T05:21:25.638Z,7.60
2022-08-26T05:23:56.751Z,7.85
2022-08-26T05:28:54.677Z,7.60
2022-08-26T05:31:25.298Z,7.97
2022-08-26T05:33:52.647Z,7.72
2022-08-26T05:36:22.021Z,8.07
2022-08-26T05:38:49.759Z,8.05
2022-08-26T05:41:34.361Z,7.57
2022-08-26T05:44:06.795Z,8.10
2022-08-26T05:46:34.704Z,6.90
2022-08-26T05:49:02.629Z,7.20
2022-08-26T05:51:31.015Z,7.90
2022-08-26T05:53:58.817Z,7.40
2022-08-26T05:56:27.714Z,6.93
2022-08-26T05:58:56.347Z,7.38
2022-08-26T06:01:26.891Z,7.53
2022-08-26T06:04:01.331Z,7.18
2022-08-26T06:06:32.303Z,7.35
2022-08-26T06:09:01.255Z,6.90
2022-08-26T06:11:30.602Z,6.47
2022-08-26T06:14:03.580Z,7.25
2022-08-26T06:16:38.284Z,6.97
2022-08-26T06:19:10.768Z,6.80
2022-08-26T06:21:41.316Z,6.50
2022-08-26T06:24:30.432Z,6.68
2022-08-26T06:27:01.229Z,6.70
2022-08-26T06:29:30.082Z,6.75
2022-08-26T06:31:58.039Z,7.03
2022-08-26T06:34:29.679Z,6.57
2022-08-26T06:36:58.681Z,6.50
2022-08-26T06:39:25.629Z,7.07
2022-08-26T06:41:52.479Z,6.90
2022-08-26T06:44:19.330Z,6.28
2022-08-26T06:46:50.280Z,6.22
2022-08-26T06:49:17.724Z,6.00
2022-08-26T06:51:44.498Z,6.50
2022-08-26T06:54:11.506Z,5.97
2022-08-26T06:56:41.770Z,5.57
2022-08-26T06:59:11.190Z,6.03
2022-08-26T07:01:44.614Z,6.28
2022-08-26T07:04:15.708Z,5.72
2022-08-26T07:06:48.980Z,5.97
2022-08-26T07:09:16.966Z,5.60
2022-08-26T07:11:44.663Z,5.38
2022-08-26T07:14:12.218Z,5.40
2022-08-26T07:16:39.634Z,5.63
2022-08-26T07:19:10.627Z,5.05
2022-08-26T07:21:42.016Z,5.63
2022-08-26T07:24:11.095Z,5.35
2022-08-26T07:26:38.836Z,4.60
2022-08-26T07:29:12.609Z,5.70
2022-08-26T07:31:42.750Z,4.78
2022-08-26T07:34:10.811Z,4.50
2022-08-26T07:36:38.205Z,5.00
2022-08-26T07:39:06.280Z,4.38
2022-08-26T07:41:33.312Z,4.78
2022-08-26T07:44:00.900Z,4.05
2022-08-26T07:46:30.307Z,4.60
2022-08-26T07:51:25.656Z,4.35
2022-08-26T07:53:53.177Z,4.35
2022-08-26T07:56:23.269Z,4.53
2022-08-26T07:58:54.110Z,4.30
2022-08-26T08:01:23.805Z,4.22
2022-08-26T08:03:53.340Z,4.95
2022-08-26T08:06:22.536Z,4.25
2022-08-26T08:08:55.242Z,4.60
2022-08-26T08:11:23.736Z,4.75
2022-08-26T08:13:56.146Z,4.20
2022-08-26T08:16:28.559Z,4.57
2022-08-26T08:18:59.371Z,4.45
2022-08-26T08:21:27.859Z,4.30
2022-08-26T08:23:57.340Z,4.10
2022-08-26T08:26:25.707Z,3.90
2022-08-26T08:28:57.149Z,4.30
2022-08-26T08:31:55.737Z,4.20
2022-08-26T08:34:18.230Z,4.70
2022-08-26T08:36:46.375Z,4.13
2022-08-26T08:39:13.863Z,4.00
2022-08-26T08:41:50.128Z,4.40
2022-08-26T08:44:31.512Z,4.05
2022-08-26T08:47:11.405Z,4.20
2022-08-26T08:49:38.155Z,3.75
2022-08-26T08:52:14.832Z,4.22
2022-08-26T08:54:41.692Z,3.63
2022-08-26T08:57:20.729Z,3.78
2022-08-26T09:00:00.477Z,4.25
2022-08-26T09:02:34.627Z,4.00
2022-08-26T09:05:17.380Z,3.88
2022-08-26T09:07:50.372Z,3.88
2022-08-26T09:10:40.465Z,4.05
2022-08-26T09:13:16.347Z,4.13
2022-08-26T09:15:56.676Z,3.97
2022-08-26T09:18:48.774Z,3.60
2022-08-26T09:21:18.345Z,4.07
2022-08-26T09:23:49.471Z,3.58
2022-08-26T09:26:45.164Z,3.88
2022-08-26T09:29:24.036Z,4.07
2022-08-26T09:31:52.029Z,3.95
2022-08-26T09:34:19.104Z,4.05
2022-08-26T09:36:54.391Z,4.10
2022-08-26T09:39:23.875Z,3.92
2022-08-26T09:44:56.567Z,4.63
2022-08-26T09:47:31.566Z,3.95
2022-08-26T09:50:29.999Z,4.35
2022-08-26T09:53:28.800Z,4.22
2022-08-26T09:56:17.734Z,4.57
2022-08-26T09:58:47.374Z,4.03
2022-08-26T10:01:22.964Z,4.85
2022-08-26T10:03:51.435Z,3.58
2022-08-26T10:06:18.159Z,4.20
2022-08-26T10:08:53.088Z,3.67
2022-08-26T10:11:47.195Z,4.45
2022-08-26T10:14:18.536Z,4.53
2022-08-26T10:16:59.560Z,4.03
2022-08-26T10:19:55.864Z,4.13
2022-08-26T10:22:26.204Z,4.00
2022-08-26T10:24:59.613Z,4.07
2022-08-26T10:27:49.724Z,4.10
2022-08-26T10:30:24.007Z,3.63
2022-08-26T10:32:56.807Z,4.15
2022-08-26T10:35:32.878Z,3.92
2022-08-26T10:38:11.373Z,4.25
2022-08-26T10:40:53.270Z,4.45
2022-08-26T10:43:28.302Z,3.92
2022-08-26T10:46:02.206Z,3.78
2022-08-26T10:48:56.419Z,3.50
2022-08-26T10:51:32.135Z,4.18
2022-08-26T10:54:15.595Z,3.35
2022-08-26T10:56:58.595Z,3.58
2022-08-26T10:59:34.670Z,3.97
2022-08-26T11:02:11.551Z,3.47
2022-08-26T11:04:48.191Z,4.22
2022-08-26T11:07:36.881Z,3.83
2022-08-26T11:10:21.532Z,3.67
2022-08-26T11:13:03.795Z,3.92
2022-08-26T11:15:31.958Z,4.00
2022-08-26T11:18:03.601Z,3.70
2022-08-26T11:20:31.087Z,3.20
2022-08-26T11:23:20.581Z,3.80
2022-08-26T11:25:57.110Z,3.95
2022-08-26T11:28:44.092Z,3.88
2022-08-26T11:31:39.973Z,3.13
2022-08-26T11:34:13.722Z,3.88
2022-08-26T11:36:54.544Z,4.10
2022-08-26T11:39:47.848Z,3.78
2022-08-26T11:42:23.702Z,3.42
2022-08-26T11:44:57.911Z,3.63
2022-08-26T11:47:29.339Z,3.65
2022-08-26T11:50:26.714Z,4.15
2022-08-26T11:53:04.352Z,3.53
2022-08-26T11:55:36.202Z,3.72
2022-08-26T11:58:05.769Z,3.42
2022-08-26T12:00:47.636Z,4.03
2022-08-26T12:03:21.473Z,3.17
2022-08-26T12:05:52.406Z,3.42
2022-08-26T12:10:51.419Z,3.40
2022-08-26T12:13:22.833Z,3.47
2022-08-26T12:15:58.029Z,3.45
2022-08-26T12:18:32.076Z,3.95
2022-08-26T12:21:01.550Z,3.42
2022-08-26T12:23:40.140Z,3.92
2022-08-26T12:26:22.549Z,3.78
2022-08-26T12:29:00.904Z,4.15
2022-08-26T12:31:33.763Z,4.20
2022-08-26T12:34:04.109Z,3.40
2022-08-26T12:36:32.250Z,3.60
2022-08-26T12:39:09.433Z,3.83
2022-08-26T12:41:42.566Z,3.75
2022-08-26T12:44:29.511Z,3.88
2022-08-26T12:47:11.712Z,3.72
2022-08-26T12:49:41.348Z,3.85
2022-08-26T12:52:29.867Z,3.45
2022-08-26T12:55:02.933Z,3.80
2022-08-26T12:57:33.172Z,3.80
2022-08-26T13:00:28.372Z,4.10
2022-08-26T13:02:55.586Z,3.95
2022-08-26T13:05:26.024Z,4.15
2022-08-26T13:08:10.581Z,3.72
2022-08-26T13:10:40.310Z,4.07
2022-08-26T13:13:07.182Z,3.97
2022-08-26T13:15:34.020Z,3.50
2022-08-26T13:18:03.341Z,4.10
2022-08-26T13:20:30.625Z,3.60
2022-08-26T13:22:59.079Z,3.53
2022-08-26T13:25:26.438Z,3.63
2022-08-26T13:27:53.276Z,3.55
2022-08-26T13:30:20.182Z,3.47
2022-08-26T13:32:46.976Z,3.85
2022-08-26T13:35:13.765Z,3.85
2022-08-26T13:37:40.478Z,3.42
2022-08-26T13:40:09.591Z,3.57
2022-08-26T13:42:36.394Z,4.47
2022-08-26T13:45:05.009Z,3.53
2022-08-26T13:47:31.858Z,3.55
2022-08-26T13:49:58.575Z,3.65
2022-08-26T13:52:30.367Z,3.90
2022-08-26T13:54:58.249Z,3.55
2022-08-26T13:57:27.915Z,3.72
2022-08-26T13:59:56.513Z,3.60
2022-08-26T14:02:23.343Z,3.67
2022-08-26T14:04:50.151Z,3.53
2022-08-26T14:07:17.090Z,3.88
2022-08-26T14:09:43.852Z,3.97
2022-08-26T14:12:10.524Z,3.60
2022-08-26T14:14:37.336Z,4.20
2022-08-26T14:17:04.034Z,4.22
2022-08-26T14:19:30.740Z,3.80
2022-08-26T14:21:57.771Z,3.30
2022-08-26T14:24:24.442Z,3.50
2022-08-26T14:26:51.103Z,3.90
2022-08-26T14:29:17.866Z,3.50
2022-08-26T14:31:44.766Z,3.75
2022-08-26T14:34:14.004Z,3.63
2022-08-26T14:36:40.713Z,4.03
2022-08-26T14:39:09.792Z,3.08
2022-08-26T14:44:25.996Z,4.00
2022-08-26T14:46:53.552Z,3.30
2022-08-26T14:49:23.037Z,3.88
2022-08-26T14:51:50.272Z,3.60
2022-08-26T14:54:18.295Z,3.67
2022-08-26T14:56:52.440Z,3.35
2022-08-26T14:59:23.192Z,3.58
2022-08-26T15:01:50.077Z,3.70
2022-08-26T15:04:17.232Z,3.60
2022-08-26T15:06:44.087Z,3.63
2022-08-26T15:09:11.402Z,3.95
2022-08-26T15:11:38.252Z,3.30
2022-08-26T15:14:06.320Z,3.65
2022-08-26T15:16:34.330Z,4.28
2022-08-26T15:19:04.492Z,3.20
2022-08-26T15:21:33.080Z,3.70
2022-08-26T15:24:00.986Z,4.53
2022-08-26T15:26:29.828Z,3.33
2022-08-26T15:28:56.975Z,3.63
2022-08-26T15:31:31.123Z,3.53
2022-08-26T15:34:00.219Z,3.90
2022-08-26T15:38:56.764Z,3.70
2022-08-26T15:41:24.453Z,3.80
2022-08-26T15:43:51.656Z,3.30
2022-08-26T15:46:19.306Z,3.55
2022-08-26T15:48:46.364Z,3.88
2022-08-26T15:51:25.987Z,3.38
2022-08-26T15:53:56.339Z,3.60
2022-08-26T15:56:27.760Z,3.30
2022-08-26T15:58:56.141Z,3.60
2022-08-26T16:01:27.748Z,3.75
2022-08-26T16:03:55.398Z,4.30
2022-08-26T16:06:27.969Z,2.90
2022-08-26T16:08:56.144Z,2.90
2022-08-26T16:11:23.721Z,3.90
2022-08-26T16:13:50.650Z,3.13
2022-08-26T16:16:17.744Z,3.50
2022-08-26T16:18:45.395Z,3.47
2022-08-26T16:21:17.295Z,3.60
2022-08-26T16:23:45.269Z,3.45
2022-08-26T16:26:19.634Z,3.45
2022-08-26T16:28:47.427Z,3.63
2022-08-26T16:31:15.242Z,3.55
2022-08-26T16:33:42.037Z,3.60
2022-08-26T16:36:09.656Z,3.22
2022-08-26T16:38:37.836Z,3.00
2022-08-26T16:41:05.329Z,3.45
2022-08-26T16:43:32.098Z,3.40
2022-08-26T16:45:58.898Z,2.72
2022-08-26T16:48:26.849Z,2.72
2022-08-26T16:50:55.514Z,3.35
2022-08-26T16:53:23.259Z,3.25
2022-08-26T16:55:50.645Z,3.33
2022-08-26T16:58:18.078Z,2.95
2022-08-26T17:00:45.369Z,3.83
2022-08-26T17:03:12.556Z,3.80
2022-08-26T17:05:40.331Z,4.05
2022-08-26T17:08:07.170Z,3.75
2022-08-26T17:10:34.667Z,3.80
2022-08-26T17:13:01.381Z,5.07
2022-08-26T17:15:28.425Z,4.55
2022-08-26T17:17:56.191Z,5.00
2022-08-26T17:20:24.355Z,4.82
2022-08-26T17:22:53.459Z,4.38
2022-08-26T17:27:48.951Z,4.75
2022-08-26T17:30:17.186Z,5.18
2022-08-26T17:32:44.163Z,4.93
2022-08-26T17:35:12.877Z,4.80
2022-08-26T17:37:40.895Z,5.35
2022-08-26T17:40:11.265Z,5.13
2022-08-26T17:42:39.372Z,4.75
2022-08-26T17:45:07.474Z,4.70
2022-08-26T17:47:34.937Z,5.00
2022-08-26T17:50:02.055Z,4.38
2022-08-26T17:52:29.456Z,4.53
2022-08-26T17:54:57.298Z,4.60
2022-08-26T17:57:25.208Z,4.50
2022-08-26T17:59:52.699Z,5.30
2022-08-26T18:02:21.210Z,4.55
2022-08-26T18:04:48.037Z,4.50
2022-08-26T18:07:15.762Z,4.90
2022-08-26T18:09:42.796Z,4.55
2022-08-26T18:12:09.816Z,4.88
2022-08-26T18:14:36.815Z,4.88
2022-08-26T18:17:04.085Z,4.93
2022-08-26T18:19:31.454Z,4.30
2022-08-26T18:21:58.733Z,4.45
2022-08-26T18:24:25.658Z,4.25
2022-08-26T18:26:52.377Z,5.03
2022-08-26T18:29:20.103Z,4.80
2022-08-26T18:31:48.486Z,4.95
2022-08-26T18:34:16.903Z,5.20
2022-08-26T18:36:44.078Z,4.30
2022-08-26T18:39:12.178Z,4.72
2022-08-26T18:41:46.031Z,4.75
2022-08-26T18:44:15.092Z,4.88
2022-08-26T18:46:42.493Z,4.72
2022-08-26T18:49:12.424Z,4.55
2022-08-26T18:51:39.567Z,4.50
2022-08-26T18:54:07.474Z,5.00
2022-08-26T18:56:36.377Z,4.50
2022-08-26T18:59:05.416Z,5.38
2022-08-26T19:01:32.691Z,4.95
2022-08-26T19:04:01.454Z,4.72
2022-08-26T19:06:31.573Z,4.65
2022-08-26T19:08:59.071Z,4.63
2022-08-26T19:11:32.109Z,5.05
2022-08-26T19:14:01.434Z,5.32
2022-08-26T19:16:29.050Z,5.20
2022-08-26T19:18:56.600Z,4.70
2022-08-26T19:21:23.388Z,4.65
2022-08-26T19:23:51.307Z,4.70
2022-08-26T19:26:19.346Z,4.90
2022-08-26T19:28:48.219Z,4.93
2022-08-26T19:31:15.582Z,5.13
2022-08-26T19:33:45.482Z,5.07
2022-08-26T19:36:22.022Z,5.68
2022-08-26T19:38:50.100Z,4.78
2022-08-26T19:41:37.911Z,5.32
2022-08-26T19:44:33.752Z,5.15
2022-08-26T19:47:00.892Z,5.07
2022-08-26T19:49:27.608Z,4.88
2022-08-26T19:51:54.565Z,5.35
2022-08-26T19:54:24.108Z,4.75
2022-08-26T19:59:17.768Z,5.00
2022-08-26T20:01:44.926Z,4.88
2022-08-26T20:04:12.468Z,5.65
2022-08-26T20:06:39.327Z,4.78
2022-08-26T20:09:06.269Z,5.20
2022-08-26T20:11:33.024Z,5.10
2022-08-26T20:13:59.869Z,5.63
2022-08-26T20:16:26.653Z,5.30
2022-08-26T20:19:11.862Z,5.30
2022-08-26T20:21:40.446Z,5.47
2022-08-26T20:24:13.251Z,5.68
2022-08-26T20:26:43.208Z,5.47
2022-08-26T20:29:12.896Z,5.65
2022-08-26T20:31:40.097Z,6.40
2022-08-26T20:34:07.252Z,5.30
2022-08-26T20:36:34.531Z,5.53
2022-08-26T20:39:01.493Z,6.45
2022-08-26T20:41:28.627Z,5.75
2022-08-26T20:43:56.408Z,6.13
2022-08-26T20:46:25.185Z,5.38
2022-08-26T20:48:53.683Z,5.93
2022-08-26T20:51:23.524Z,5.22
2022-08-26T20:53:51.145Z,4.75
2022-08-26T20:56:23.563Z,5.65
2022-08-26T20:58:53.324Z,5.40
2022-08-26T21:01:25.961Z,4.97
2022-08-26T21:03:55.183Z,5.65
2022-08-26T21:06:21.998Z,6.05
2022-08-26T21:08:50.341Z,5.85
2022-08-26T21:11:19.784Z,5.07
2022-08-26T21:16:36.623Z,5.57
2022-08-26T21:21:31.486Z,5.32
2022-08-26T21:23:58.814Z,5.97
2022-08-26T21:26:26.391Z,5.78
2022-08-26T21:28:53.842Z,5.70
2022-08-26T21:31:24.487Z,5.88
2022-08-26T21:33:51.866Z,6.78
2022-08-26T21:36:19.360Z,5.53
2022-08-26T21:38:46.136Z,5.22
2022-08-26T21:41:19.445Z,5.35
2022-08-26T21:43:47.882Z,5.53
2022-08-26T21:46:21.877Z,5.40
2022-08-26T21:48:56.158Z,5.43
2022-08-26T21:51:25.428Z,6.38
2022-08-26T21:53:52.950Z,6.15
2022-08-26T21:56:21.207Z,4.90
2022-08-26T21:58:48.094Z,5.60
2022-08-26T22:01:19.736Z,5.70
2022-08-26T22:03:47.906Z,6.00
2022-08-26T22:06:21.245Z,6.10
2022-08-26T22:08:47.996Z,6.07
2022-08-26T22:11:15.986Z,6.10
2022-08-26T22:13:43.503Z,6.03
2022-08-26T22:16:11.440Z,6.35
2022-08-26T22:18:38.953Z,5.88
2022-08-26T22:21:08.674Z,6.10
2022-08-26T22:23:36.807Z,5.78
2022-08-26T22:26:05.589Z,6.03
2022-08-26T22:28:32.648Z,5.60
2022-08-26T22:30:59.450Z,6.10
2022-08-26T22:33:26.301Z,5.65
2022-08-26T22:35:53.730Z,5.30
2022-08-26T22:38:21.154Z,5.45
2022-08-26T22:40:50.875Z,5.80
2022-08-26T22:43:19.327Z,5.72
2022-08-26T22:45:48.404Z,5.72
2022-08-26T22:48:18.236Z,5.65
2022-08-26T22:50:46.622Z,5.68
2022-08-26T22:53:14.431Z,5.80
2022-08-26T22:55:41.343Z,5.57
2022-08-26T22:58:08.134Z,5.70
2022-08-26T23:00:35.510Z,5.65
2022-08-26T23:03:04.249Z,5.97
2022-08-26T23:05:31.860Z,6.00
2022-08-26T23:07:59.022Z,6.38
2022-08-26T23:10:25.862Z,6.03
2022-08-26T23:12:53.136Z,5.70
2022-08-26T23:15:21.222Z,5.65
2022-08-26T23:17:52.338Z,5.32
2022-08-26T23:20:27.075Z,6.13
2022-08-26T23:22:55.015Z,5.82
2022-08-26T23:25:22.657Z,6.63
2022-08-26T23:27:51.732Z,5.60
2022-08-26T23:30:24.121Z,5.80
2022-08-26T23:32:50.809Z,5.10
2022-08-26T23:35:20.512Z,6.07
2022-08-26T23:37:54.030Z,6.10
2022-08-26T23:40:32.278Z,6.47
2022-08-26T23:43:01.507Z,6.25
2022-08-26T23:45:28.320Z,6.05
2022-08-26T23:47:55.434Z,5.90
2022-08-26T23:50:44.702Z,5.90
2022-08-26T23:53:19.161Z,5.82
2022-08-26T23:55:48.854Z,5.85
